Main page
METAR-TAF:

METAR-TAF

Airports :

Goeree Le, Netherlands

Oil platform

latitude: 51-55-33N, longitude: 3-40-12E, elevation: 19 m

Current weather observation

The report was made 50 minutes ago, at 06:25 UTC
Wind 27 kt from the West with gusts up to 31 kt
Temperature 16°C
Humidity 68%
Pressure 1013 hPa
Visibility 10 km or more

METAR: EHSC 190625Z AUTO 28027G31KT 9999 ///////// 16/10 Q1013 W19/H17

Time: 09:15 (07:15 UTC)


TAF: missing

Weather observations and forecasts of more than 4000 airports (METAR and TAF reports).

The available stations are represented by yellow and red dots on the map.

Hover mouse over dot to see the name of the station.

Then click to see weather observations and forecasts.

To change the map : click on the green buttons with a black cross to zoom in, on the green button with a dash to zoom out, or on the green arrows for adjacent maps.


METAR-TAF: